createdAt,value
2019-03-24T00:00:38.342Z,0.00
2019-03-24T00:01:41.318Z,0.00
2019-03-24T00:02:38.581Z,0.00
2019-03-24T00:03:38.757Z,0.00
2019-03-24T00:04:39.010Z,0.00
2019-03-24T00:05:39.130Z,0.00
2019-03-24T00:06:39.241Z,0.00
2019-03-24T00:07:39.342Z,0.00
2019-03-24T00:08:39.460Z,0.00
2019-03-24T00:09:39.555Z,0.00
2019-03-24T00:10:39.761Z,0.00
2019-03-24T00:11:39.970Z,0.00
2019-03-24T00:12:40.074Z,0.00
2019-03-24T00:13:40.189Z,0.00
2019-03-24T00:14:40.347Z,0.00
2019-03-24T00:15:40.460Z,0.00
2019-03-24T00:16:40.563Z,0.00
2019-03-24T00:17:40.772Z,0.00
2019-03-24T00:18:41.013Z,0.00
2019-03-24T00:19:41.078Z,0.00
2019-03-24T00:20:41.311Z,0.00
2019-03-24T00:21:41.551Z,0.00
2019-03-24T00:22:41.649Z,0.00
2019-03-24T00:23:41.776Z,0.00
2019-03-24T00:24:41.919Z,0.00
2019-03-24T00:25:41.999Z,0.00
2019-03-24T00:26:42.230Z,0.00
2019-03-24T00:27:42.299Z,0.00
2019-03-24T00:28:42.535Z,0.00
2019-03-24T00:29:42.663Z,0.00
2019-03-24T00:30:42.751Z,0.00
2019-03-24T00:31:42.961Z,0.00
2019-03-24T00:32:43.055Z,0.00
2019-03-24T00:33:43.284Z,0.00
2019-03-24T00:34:43.387Z,0.00
2019-03-24T00:35:43.492Z,0.00
2019-03-24T00:36:43.567Z,0.00
2019-03-24T00:37:43.774Z,0.00
2019-03-24T00:38:44.020Z,0.00
2019-03-24T00:39:44.135Z,0.00
2019-03-24T00:40:44.227Z,0.00
2019-03-24T00:41:44.450Z,0.00
2019-03-24T00:42:44.653Z,0.00
2019-03-24T00:43:44.899Z,0.00
2019-03-24T00:44:44.995Z,0.00
2019-03-24T00:45:45.071Z,0.00
2019-03-24T00:46:45.204Z,0.00
2019-03-24T00:47:45.331Z,0.00
2019-03-24T00:48:45.470Z,0.00
2019-03-24T00:49:45.621Z,0.00
2019-03-24T00:50:45.653Z,0.00
2019-03-24T00:51:45.906Z,0.00
2019-03-24T00:52:46.003Z,0.00
2019-03-24T00:53:46.150Z,0.00
2019-03-24T00:54:46.236Z,0.00
2019-03-24T00:55:46.317Z,0.00
2019-03-24T00:56:46.553Z,0.00
2019-03-24T00:57:46.619Z,0.00
2019-03-24T00:58:46.855Z,0.00
2019-03-24T00:59:46.949Z,0.00
2019-03-24T01:00:47.061Z,0.00
2019-03-24T01:01:47.171Z,0.00
2019-03-24T01:02:47.263Z,0.00
2019-03-24T01:03:47.658Z,0.00
2019-03-24T01:04:47.546Z,0.00
2019-03-24T01:05:47.705Z,0.00
2019-03-24T01:06:47.914Z,0.00
2019-03-24T01:07:48.111Z,0.00
2019-03-24T01:08:48.323Z,0.00
2019-03-24T01:09:48.462Z,0.00
2019-03-24T01:10:48.582Z,0.00
2019-03-24T01:11:48.684Z,0.00
2019-03-24T01:12:48.943Z,0.00
2019-03-24T01:13:49.039Z,0.00
2019-03-24T01:14:49.122Z,0.00
2019-03-24T01:15:49.378Z,0.00
2019-03-24T01:16:49.558Z,0.00
2019-03-24T01:17:49.671Z,0.00
2019-03-24T01:18:49.767Z,0.00
2019-03-24T01:19:49.887Z,0.00
2019-03-24T01:20:50.033Z,0.00
2019-03-24T01:21:50.168Z,0.00
2019-03-24T01:22:50.312Z,0.00
2019-03-24T01:23:50.414Z,0.00
2019-03-24T01:24:50.622Z,0.00
2019-03-24T01:25:50.716Z,0.00
2019-03-24T01:26:50.961Z,0.00
2019-03-24T01:27:51.034Z,0.00
2019-03-24T01:28:51.145Z,0.00
2019-03-24T01:29:51.235Z,0.00
2019-03-24T01:30:51.428Z,0.00
2019-03-24T01:31:51.642Z,0.00
2019-03-24T01:32:51.739Z,0.00
2019-03-24T01:33:51.862Z,0.00
2019-03-24T01:34:51.955Z,0.00
2019-03-24T01:35:52.166Z,0.00
2019-03-24T01:36:52.276Z,0.00
2019-03-24T01:37:52.494Z,0.00
2019-03-24T01:38:52.581Z,0.00
2019-03-24T01:39:52.835Z,0.00
2019-03-24T01:40:53.050Z,0.00
2019-03-24T01:41:53.137Z,0.00
2019-03-24T01:42:53.334Z,0.00
2019-03-24T01:43:53.465Z,0.00
2019-03-24T01:44:53.612Z,0.00
2019-03-24T01:45:58.480Z,0.00
2019-03-24T01:46:53.843Z,0.00
2019-03-24T01:47:54.087Z,0.00
2019-03-24T01:48:54.156Z,0.00
2019-03-24T01:49:54.382Z,0.00
2019-03-24T01:50:54.630Z,0.00
2019-03-24T01:51:54.749Z,0.00
2019-03-24T01:52:54.958Z,0.00
2019-03-24T01:53:55.169Z,0.00
2019-03-24T01:54:55.281Z,0.00
2019-03-24T01:55:55.370Z,0.00
2019-03-24T01:56:55.556Z,0.00
2019-03-24T01:57:55.742Z,0.00
2019-03-24T01:58:55.859Z,0.00
2019-03-24T01:59:55.991Z,0.00
2019-03-24T02:00:56.131Z,0.00
2019-03-24T02:01:56.219Z,0.00
2019-03-24T02:02:56.300Z,0.00
2019-03-24T02:03:56.549Z,0.00
2019-03-24T02:04:56.748Z,0.00
2019-03-24T02:05:56.853Z,0.00
2019-03-24T02:06:56.949Z,0.00
2019-03-24T02:07:57.074Z,0.00
2019-03-24T02:08:57.180Z,0.00
2019-03-24T02:09:57.405Z,0.00
2019-03-24T02:10:57.565Z,0.00
2019-03-24T02:11:57.702Z,0.00
2019-03-24T02:12:57.856Z,0.00
2019-03-24T02:13:57.943Z,0.00
2019-03-24T02:14:58.166Z,0.00
2019-03-24T02:16:08.821Z,0.00
2019-03-24T02:16:59.333Z,0.00
2019-03-24T02:17:58.693Z,0.00
2019-03-24T02:18:58.811Z,0.00
2019-03-24T02:19:58.924Z,0.00
2019-03-24T02:20:59.033Z,0.00
2019-03-24T02:21:59.136Z,0.00
2019-03-24T02:22:59.243Z,0.00
2019-03-24T02:23:59.309Z,0.00
2019-03-24T02:25:02.955Z,0.00
2019-03-24T02:26:02.988Z,0.00
2019-03-24T02:26:59.855Z,0.00
2019-03-24T02:27:59.925Z,0.00
2019-03-24T02:29:00.094Z,0.00
2019-03-24T02:30:00.392Z,0.00
2019-03-24T02:31:00.320Z,0.00
2019-03-24T02:32:00.426Z,0.00
2019-03-24T02:33:00.526Z,0.00
2019-03-24T02:34:00.603Z,0.00
2019-03-24T02:35:00.866Z,0.00
2019-03-24T02:36:00.939Z,0.00
2019-03-24T02:37:01.153Z,0.00
2019-03-24T02:38:01.273Z,0.00
2019-03-24T02:39:01.414Z,0.00
2019-03-24T02:40:01.488Z,0.00
2019-03-24T02:41:03.273Z,0.00
2019-03-24T02:42:01.788Z,0.00
2019-03-24T02:43:01.966Z,0.00
2019-03-24T02:44:02.126Z,0.00
2019-03-24T02:45:02.238Z,0.00
2019-03-24T02:46:02.362Z,0.00
2019-03-24T02:47:02.588Z,0.00
2019-03-24T02:48:02.711Z,0.00
2019-03-24T02:49:02.837Z,0.00
2019-03-24T02:50:03.039Z,0.00
2019-03-24T02:51:03.276Z,0.00
2019-03-24T02:52:03.444Z,0.00
2019-03-24T02:53:03.661Z,0.00
2019-03-24T02:54:03.824Z,0.00
2019-03-24T02:55:03.921Z,0.00
2019-03-24T02:56:04.041Z,0.00
2019-03-24T02:57:04.119Z,0.00
2019-03-24T02:58:04.333Z,0.00
2019-03-24T02:59:04.464Z,0.00
2019-03-24T03:00:04.594Z,0.00
2019-03-24T03:01:04.718Z,0.00
2019-03-24T03:02:04.833Z,0.00
2019-03-24T03:03:04.951Z,0.00
2019-03-24T03:04:05.196Z,0.00
2019-03-24T03:05:05.332Z,0.00
2019-03-24T03:06:05.619Z,0.00
2019-03-24T03:07:05.657Z,0.00
2019-03-24T03:08:05.888Z,0.00
2019-03-24T03:09:05.945Z,0.00
2019-03-24T03:10:06.308Z,0.00
2019-03-24T03:11:06.293Z,0.00
2019-03-24T03:12:06.404Z,0.00
2019-03-24T03:13:06.602Z,0.00
2019-03-24T03:14:06.771Z,0.00
2019-03-24T03:15:06.882Z,0.00
2019-03-24T03:16:06.955Z,0.00
2019-03-24T03:17:07.089Z,0.00
2019-03-24T03:18:07.221Z,0.00
2019-03-24T03:19:07.391Z,0.00
2019-03-24T03:20:07.556Z,0.00
2019-03-24T03:21:07.680Z,0.00
2019-03-24T03:22:07.759Z,0.00
2019-03-24T03:23:07.972Z,0.00
2019-03-24T03:24:08.084Z,0.00
2019-03-24T03:25:08.239Z,0.00
2019-03-24T03:26:08.467Z,0.00
2019-03-24T03:27:08.699Z,0.00
2019-03-24T03:28:08.871Z,0.00
2019-03-24T03:29:08.924Z,0.00
2019-03-24T03:30:09.079Z,0.00
2019-03-24T03:31:09.190Z,0.00
2019-03-24T03:32:09.413Z,0.00
2019-03-24T03:33:09.644Z,0.00
2019-03-24T03:34:09.812Z,0.00
2019-03-24T03:35:09.870Z,0.00
2019-03-24T03:36:10.125Z,0.00
2019-03-24T03:37:10.447Z,0.00
2019-03-24T03:38:10.428Z,0.00
2019-03-24T03:39:10.482Z,0.00
2019-03-24T03:40:10.736Z,0.00
2019-03-24T03:41:10.818Z,0.00
2019-03-24T03:42:10.905Z,0.00
2019-03-24T03:43:11.130Z,0.00
2019-03-24T03:44:11.252Z,0.00
2019-03-24T03:45:11.411Z,0.00
2019-03-24T03:46:11.503Z,0.00
2019-03-24T03:47:11.616Z,0.00
2019-03-24T03:48:11.818Z,0.00
2019-03-24T03:49:11.998Z,0.00
2019-03-24T03:50:12.211Z,0.00
2019-03-24T03:51:12.403Z,0.00
2019-03-24T03:52:12.541Z,0.00
2019-03-24T03:53:12.671Z,0.00
2019-03-24T03:54:12.788Z,0.00
2019-03-24T03:55:13.090Z,0.00
2019-03-24T03:56:13.127Z,0.00
2019-03-24T03:57:13.211Z,0.00
2019-03-24T03:58:13.455Z,0.00
2019-03-24T03:59:13.490Z,0.00
2019-03-24T04:00:13.591Z,0.00
2019-03-24T04:01:13.849Z,0.00
2019-03-24T04:02:13.967Z,0.00
2019-03-24T04:03:14.070Z,0.00
2019-03-24T04:04:14.173Z,0.00
2019-03-24T04:05:14.404Z,0.00
2019-03-24T04:06:14.511Z,0.00
2019-03-24T04:07:14.634Z,0.00
2019-03-24T04:08:14.751Z,0.00
2019-03-24T04:09:14.921Z,0.00
2019-03-24T04:10:15.044Z,0.00
2019-03-24T04:11:15.112Z,0.00
2019-03-24T04:12:15.346Z,0.00
2019-03-24T04:13:15.468Z,0.00
2019-03-24T04:14:15.708Z,0.00
2019-03-24T04:15:15.773Z,0.00
2019-03-24T04:16:15.979Z,0.00
2019-03-24T04:17:16.080Z,0.00
2019-03-24T04:18:16.209Z,0.00
2019-03-24T04:19:16.309Z,0.00
2019-03-24T04:20:16.446Z,0.00
2019-03-24T04:21:16.523Z,0.00
2019-03-24T04:22:16.715Z,0.00
2019-03-24T04:23:16.837Z,0.00
2019-03-24T04:24:16.956Z,0.00
2019-03-24T04:25:17.070Z,0.00
2019-03-24T04:26:17.190Z,0.00
2019-03-24T04:27:17.286Z,0.00
2019-03-24T04:28:17.487Z,0.00
2019-03-24T04:29:17.658Z,0.00
2019-03-24T04:30:17.809Z,0.00
2019-03-24T04:31:17.895Z,0.00
2019-03-24T04:32:18.090Z,0.00
2019-03-24T04:33:18.276Z,0.00
2019-03-24T04:34:18.419Z,0.00
2019-03-24T04:35:18.757Z,0.00
2019-03-24T04:36:18.711Z,0.00
2019-03-24T04:37:18.918Z,0.00
2019-03-24T04:38:19.109Z,0.00
2019-03-24T04:39:19.300Z,0.00
2019-03-24T04:40:19.406Z,0.00
2019-03-24T04:41:19.492Z,0.00
2019-03-24T04:42:19.764Z,0.00
2019-03-24T04:43:19.873Z,0.00
2019-03-24T04:44:20.076Z,0.00
2019-03-24T04:45:20.195Z,0.00
2019-03-24T04:46:20.287Z,0.00
2019-03-24T04:47:20.533Z,0.00
2019-03-24T04:48:20.611Z,0.00
2019-03-24T04:49:20.883Z,0.00
2019-03-24T04:50:21.152Z,0.00
2019-03-24T04:51:21.098Z,0.00
2019-03-24T04:52:21.324Z,0.00
2019-03-24T04:53:21.404Z,0.00
2019-03-24T04:54:21.618Z,4.00
2019-03-24T04:55:25.280Z,4.00
2019-03-24T04:56:21.982Z,4.00
2019-03-24T04:57:22.072Z,4.00
2019-03-24T04:58:22.167Z,0.00
2019-03-24T04:59:22.423Z,4.00
2019-03-24T05:00:22.709Z,8.00
2019-03-24T05:01:23.391Z,4.00
2019-03-24T05:02:22.826Z,4.00
2019-03-24T05:03:22.890Z,8.00
2019-03-24T05:04:23.112Z,8.00
2019-03-24T05:05:23.301Z,12.00
2019-03-24T05:06:23.506Z,12.00
2019-03-24T05:07:23.731Z,16.00
2019-03-24T05:08:23.799Z,16.00
2019-03-24T05:09:24.031Z,20.00
2019-03-24T05:10:24.127Z,24.00
2019-03-24T05:11:24.245Z,20.00
2019-03-24T05:12:24.380Z,24.00
2019-03-24T05:13:24.534Z,32.00
2019-03-24T05:14:24.635Z,32.00
2019-03-24T05:15:24.830Z,36.00
2019-03-24T05:16:25.033Z,36.00
2019-03-24T05:17:27.237Z,40.00
2019-03-24T05:18:25.419Z,40.00
2019-03-24T05:19:25.520Z,40.00
2019-03-24T05:20:25.673Z,48.00
2019-03-24T05:21:25.873Z,52.00
2019-03-24T05:22:26.081Z,52.00
2019-03-24T05:23:26.346Z,60.00
2019-03-24T05:24:26.439Z,60.00
2019-03-24T05:25:26.650Z,72.00
2019-03-24T05:26:26.711Z,76.00
2019-03-24T05:27:26.917Z,80.00
2019-03-24T05:28:27.089Z,84.00
2019-03-24T05:29:27.289Z,92.00
2019-03-24T05:30:27.391Z,100.00
2019-03-24T05:31:27.520Z,108.00
2019-03-24T05:32:27.585Z,120.00
2019-03-24T05:33:27.808Z,136.00
2019-03-24T05:34:28.009Z,148.00
2019-03-24T05:35:28.219Z,156.00
2019-03-24T05:36:28.307Z,164.00
2019-03-24T05:37:28.518Z,168.00
2019-03-24T05:38:28.818Z,176.00
2019-03-24T05:39:28.962Z,176.00
2019-03-24T05:40:29.040Z,180.00
2019-03-24T05:41:29.256Z,192.00
2019-03-24T05:42:29.305Z,200.00
2019-03-24T05:43:29.531Z,208.00
2019-03-24T05:44:29.623Z,224.00
2019-03-24T05:45:29.862Z,244.00
2019-03-24T05:46:29.936Z,264.00
2019-03-24T05:47:37.115Z,288.00
2019-03-24T05:48:30.390Z,300.00
2019-03-24T05:49:30.494Z,304.00
2019-03-24T05:50:30.603Z,312.00
2019-03-24T05:51:30.712Z,312.00
2019-03-24T05:52:30.795Z,312.00
2019-03-24T05:53:30.917Z,316.00
2019-03-24T05:54:31.100Z,332.00
2019-03-24T05:55:31.316Z,344.00
2019-03-24T05:56:31.535Z,372.00
2019-03-24T05:57:31.642Z,392.00
2019-03-24T05:58:31.690Z,392.00
2019-03-24T05:59:31.920Z,392.00
2019-03-24T06:00:32.466Z,392.00
2019-03-24T06:01:32.297Z,396.00
2019-03-24T06:02:32.482Z,424.00
2019-03-24T06:03:32.672Z,448.00
2019-03-24T06:04:32.881Z,460.00
2019-03-24T06:05:33.079Z,444.00
2019-03-24T06:06:33.156Z,440.00
2019-03-24T06:07:33.342Z,436.00
2019-03-24T06:08:35.726Z,444.00
2019-03-24T06:09:33.875Z,452.00
2019-03-24T06:10:35.696Z,468.00
2019-03-24T06:11:34.109Z,480.00
2019-03-24T06:12:35.306Z,508.00
2019-03-24T06:13:34.958Z,532.00
2019-03-24T06:14:35.300Z,548.00
2019-03-24T06:15:36.513Z,544.00
2019-03-24T06:16:34.979Z,552.00
2019-03-24T06:17:34.955Z,568.00
2019-03-24T06:18:35.149Z,596.00
2019-03-24T06:19:35.364Z,608.00
2019-03-24T06:20:35.463Z,612.00
2019-03-24T06:21:35.758Z,628.00
2019-03-24T06:22:35.804Z,628.00
2019-03-24T06:23:36.035Z,612.00
2019-03-24T06:24:36.146Z,612.00
2019-03-24T06:25:36.212Z,624.00
2019-03-24T06:26:36.379Z,616.00
2019-03-24T06:27:36.596Z,628.00
2019-03-24T06:28:36.764Z,648.00
2019-03-24T06:29:36.993Z,668.00
2019-03-24T06:30:37.070Z,684.00
2019-03-24T06:31:37.241Z,712.00
2019-03-24T06:32:39.032Z,740.00
2019-03-24T06:33:40.332Z,772.00
2019-03-24T06:34:39.173Z,796.00
2019-03-24T06:35:38.934Z,832.00
2019-03-24T06:36:40.030Z,856.00
2019-03-24T06:37:38.804Z,864.00
2019-03-24T06:38:38.496Z,876.00
2019-03-24T06:39:38.697Z,852.00
2019-03-24T06:40:38.879Z,864.00
2019-03-24T06:41:39.079Z,880.00
2019-03-24T06:42:39.326Z,904.00
2019-03-24T06:43:39.423Z,924.00
2019-03-24T06:44:39.640Z,972.00
2019-03-24T06:45:39.874Z,1008.00
2019-03-24T06:46:39.971Z,1044.00
2019-03-24T06:47:42.097Z,1092.00
2019-03-24T06:48:40.523Z,1104.00
2019-03-24T06:49:40.538Z,1132.00
2019-03-24T06:50:40.793Z,1116.00
2019-03-24T06:51:40.812Z,1172.00
2019-03-24T06:52:41.026Z,1220.00
2019-03-24T06:53:41.230Z,1220.00
2019-03-24T06:54:41.292Z,1204.00
2019-03-24T06:55:41.482Z,1232.00
2019-03-24T06:56:41.594Z,1196.00
2019-03-24T06:57:41.710Z,1172.00
2019-03-24T06:58:41.855Z,1176.00
2019-03-24T06:59:41.903Z,1216.00
2019-03-24T07:00:42.125Z,1280.00
2019-03-24T07:01:42.187Z,1336.00
2019-03-24T07:02:42.321Z,1456.00
2019-03-24T07:03:42.501Z,1592.00
2019-03-24T07:04:42.689Z,1720.00
2019-03-24T07:05:42.796Z,1836.00
2019-03-24T07:06:42.963Z,2036.00
2019-03-24T07:07:43.149Z,2132.00
2019-03-24T07:08:43.297Z,2164.00
2019-03-24T07:09:43.467Z,2096.00
2019-03-24T07:10:43.647Z,2028.00
2019-03-24T07:11:43.794Z,2000.00
2019-03-24T07:12:43.959Z,2080.00
2019-03-24T07:13:44.144Z,2156.00
2019-03-24T07:14:44.320Z,2264.00
2019-03-24T07:15:44.479Z,2368.00
2019-03-24T07:16:44.646Z,2476.00
2019-03-24T07:17:44.841Z,2568.00
2019-03-24T07:18:45.074Z,2588.00
2019-03-24T07:19:45.195Z,2524.00
2019-03-24T07:20:45.402Z,2528.00
2019-03-24T07:21:45.434Z,2560.00
2019-03-24T07:22:45.642Z,2532.00
2019-03-24T07:23:45.768Z,2596.00
2019-03-24T07:24:45.863Z,2700.00
2019-03-24T07:25:46.055Z,2740.00
2019-03-24T07:26:46.207Z,2732.00
2019-03-24T07:27:46.365Z,2768.00
2019-03-24T07:28:46.568Z,2880.00
2019-03-24T07:29:46.668Z,2936.00
2019-03-24T07:30:46.846Z,2888.00
2019-03-24T07:31:47.056Z,2980.00
2019-03-24T07:32:47.161Z,3000.00
2019-03-24T07:33:47.274Z,2804.00
2019-03-24T07:34:47.383Z,2668.00
2019-03-24T07:35:47.461Z,2624.00
2019-03-24T07:36:47.658Z,2656.00
2019-03-24T07:37:47.856Z,2712.00
2019-03-24T07:38:48.046Z,2716.00
2019-03-24T07:39:48.268Z,2784.00
2019-03-24T07:40:48.477Z,2872.00
2019-03-24T07:41:48.648Z,3040.00
2019-03-24T07:42:48.870Z,3200.00
2019-03-24T07:43:48.971Z,3240.00
2019-03-24T07:44:49.127Z,3324.00
2019-03-24T07:45:49.243Z,3460.00
2019-03-24T07:46:49.466Z,3716.00
2019-03-24T07:47:49.655Z,4084.00
2019-03-24T07:48:49.826Z,4428.00
2019-03-24T07:49:49.999Z,4904.00
2019-03-24T07:50:50.184Z,5348.00
2019-03-24T07:51:50.372Z,5380.00
2019-03-24T07:52:50.652Z,5076.00
2019-03-24T07:53:50.644Z,4848.00
2019-03-24T07:54:50.878Z,4856.00
2019-03-24T07:55:50.993Z,5156.00
2019-03-24T07:56:51.188Z,5512.00
2019-03-24T07:57:51.368Z,5620.00
2019-03-24T07:58:51.664Z,5732.00
2019-03-24T07:59:51.809Z,5740.00
2019-03-24T08:00:53.678Z,5632.00
2019-03-24T08:01:52.936Z,5504.00
2019-03-24T08:02:53.369Z,5380.00
2019-03-24T08:03:53.499Z,5104.00
2019-03-24T08:04:53.730Z,4900.00
2019-03-24T08:05:55.894Z,4996.00
2019-03-24T08:06:56.202Z,5056.00
2019-03-24T08:07:53.089Z,5044.00
2019-03-24T08:08:53.309Z,4932.00
2019-03-24T08:09:53.486Z,4808.00
2019-03-24T08:10:53.659Z,4720.00
2019-03-24T08:11:54.008Z,4716.00
2019-03-24T08:12:53.968Z,4952.00
2019-03-24T08:13:54.278Z,5196.00
2019-03-24T08:14:54.272Z,5352.00
2019-03-24T08:15:54.411Z,5408.00
2019-03-24T08:16:54.813Z,5360.00
2019-03-24T08:17:56.599Z,5196.00
2019-03-24T08:18:55.211Z,4952.00
2019-03-24T08:19:55.421Z,4812.00
2019-03-24T08:20:55.623Z,4808.00
2019-03-24T08:21:55.646Z,4708.00
2019-03-24T08:22:55.640Z,4536.00
2019-03-24T08:23:56.103Z,4628.00
2019-03-24T08:24:56.936Z,4712.00
2019-03-24T08:25:57.109Z,4580.00
2019-03-24T08:26:56.051Z,4488.00
2019-03-24T08:27:57.985Z,4384.00
2019-03-24T08:28:56.903Z,4300.00
2019-03-24T08:29:57.539Z,4220.00
2019-03-24T08:30:58.018Z,4220.00
2019-03-24T08:31:57.630Z,4388.00
2019-03-24T08:32:58.621Z,4488.00
2019-03-24T08:33:58.269Z,4504.00
2019-03-24T08:34:57.160Z,4316.00
2019-03-24T08:35:57.571Z,4072.00
2019-03-24T08:36:57.659Z,3928.00
2019-03-24T08:37:58.278Z,3864.00
2019-03-24T08:38:58.144Z,3760.00
2019-03-24T08:39:58.023Z,3644.00
2019-03-24T08:40:58.233Z,3564.00
2019-03-24T08:41:58.409Z,3496.00
2019-03-24T08:42:58.512Z,3428.00
2019-03-24T08:43:59.653Z,3432.00
2019-03-24T08:44:59.630Z,3572.00
2019-03-24T08:46:00.322Z,3816.00
2019-03-24T08:47:00.440Z,4064.00
2019-03-24T08:48:01.589Z,4272.00
2019-03-24T08:49:00.423Z,4456.00
2019-03-24T08:50:01.130Z,4684.00
2019-03-24T08:51:00.429Z,4832.00
2019-03-24T08:52:00.843Z,4772.00
2019-03-24T08:53:01.513Z,4732.00
2019-03-24T08:54:00.831Z,4736.00
2019-03-24T08:55:01.269Z,4860.00
2019-03-24T08:56:00.836Z,5032.00
2019-03-24T08:57:01.480Z,5096.00
2019-03-24T08:58:01.232Z,5112.00
2019-03-24T08:59:01.937Z,5072.00
2019-03-24T09:00:03.797Z,5008.00
2019-03-24T09:01:01.637Z,4952.00
2019-03-24T09:02:02.001Z,5012.00
2019-03-24T09:03:02.135Z,5216.00
2019-03-24T09:04:02.420Z,5636.00
2019-03-24T09:05:02.220Z,6284.00
2019-03-24T09:06:02.438Z,6824.00
2019-03-24T09:07:02.752Z,7192.00
2019-03-24T09:08:02.553Z,7124.00
2019-03-24T09:09:02.899Z,6768.00
2019-03-24T09:10:03.487Z,6444.00
2019-03-24T09:11:03.192Z,6196.00
2019-03-24T09:12:03.471Z,6084.00
2019-03-24T09:13:03.562Z,6016.00
2019-03-24T09:14:03.702Z,5868.00
2019-03-24T09:15:03.828Z,5868.00
2019-03-24T09:16:04.264Z,6172.00
2019-03-24T09:17:04.177Z,6624.00
2019-03-24T09:18:04.478Z,7156.00
2019-03-24T09:19:04.567Z,7580.00
2019-03-24T09:20:04.625Z,7924.00
2019-03-24T09:21:04.810Z,7748.00
2019-03-24T09:22:05.015Z,7716.00
2019-03-24T09:23:05.160Z,7648.00
2019-03-24T09:24:05.306Z,7636.00
2019-03-24T09:25:05.463Z,8076.00
2019-03-24T09:26:05.673Z,8684.00
2019-03-24T09:27:05.814Z,9544.00
2019-03-24T09:28:05.946Z,10868.00
2019-03-24T09:29:06.900Z,11392.00
2019-03-24T09:30:06.898Z,9008.00
2019-03-24T09:31:06.460Z,8364.00
2019-03-24T09:32:06.578Z,8652.00
2019-03-24T09:33:06.934Z,9456.00
2019-03-24T09:34:07.694Z,11284.00
2019-03-24T09:35:07.075Z,13772.00
2019-03-24T09:36:07.309Z,15484.00
2019-03-24T09:37:07.387Z,17248.00
2019-03-24T09:38:09.268Z,16768.00
2019-03-24T09:39:09.114Z,17248.00
2019-03-24T09:40:08.775Z,14204.00
2019-03-24T09:41:09.097Z,13792.00
2019-03-24T09:42:08.739Z,13684.00
2019-03-24T09:43:09.150Z,13228.00
2019-03-24T09:44:09.709Z,12716.00
2019-03-24T09:45:09.580Z,15616.00
2019-03-24T09:46:09.442Z,12500.00
2019-03-24T09:47:09.363Z,13452.00
2019-03-24T09:48:09.026Z,20096.00
2019-03-24T09:49:09.174Z,20576.00
2019-03-24T09:50:09.583Z,23360.00
2019-03-24T09:51:10.716Z,31648.00
2019-03-24T09:52:09.682Z,33696.00
2019-03-24T09:53:10.057Z,34528.00
2019-03-24T09:54:09.944Z,22432.00
2019-03-24T09:55:10.055Z,14324.00
2019-03-24T09:56:10.151Z,19168.00
2019-03-24T09:57:10.349Z,21920.00
2019-03-24T09:58:10.493Z,23968.00
2019-03-24T09:59:10.721Z,22816.00
2019-03-24T10:00:10.805Z,21536.00
2019-03-24T10:01:11.054Z,21760.00
2019-03-24T10:02:13.139Z,24032.00
2019-03-24T10:03:11.384Z,22048.00
2019-03-24T10:04:11.528Z,17920.00
2019-03-24T10:05:11.739Z,18720.00
2019-03-24T10:06:11.828Z,31808.00
2019-03-24T10:07:12.015Z,33088.00
2019-03-24T10:08:12.180Z,35232.00
2019-03-24T10:09:12.445Z,33760.00
2019-03-24T10:10:12.521Z,34272.00
2019-03-24T10:11:12.838Z,33920.00
2019-03-24T10:12:13.057Z,32416.00
2019-03-24T10:13:13.071Z,33728.00
2019-03-24T10:14:13.230Z,33216.00
2019-03-24T10:15:13.500Z,34048.00
2019-03-24T10:16:13.505Z,34208.00
2019-03-24T10:17:13.769Z,33792.00
2019-03-24T10:18:13.840Z,34080.00
2019-03-24T10:19:15.499Z,32480.00
2019-03-24T10:20:14.174Z,32288.00
2019-03-24T10:21:15.285Z,32128.00
2019-03-24T10:22:14.767Z,32160.00
2019-03-24T10:23:15.617Z,29664.00
2019-03-24T10:24:15.021Z,30688.00
2019-03-24T10:25:15.068Z,30944.00
2019-03-24T10:26:15.248Z,30432.00
2019-03-24T10:27:15.409Z,27456.00
2019-03-24T10:28:15.541Z,24128.00
2019-03-24T10:29:15.832Z,21600.00
2019-03-24T10:30:15.966Z,21184.00
2019-03-24T10:31:16.077Z,21024.00
2019-03-24T10:32:16.246Z,20928.00
2019-03-24T10:33:16.387Z,20384.00
2019-03-24T10:34:16.514Z,19776.00
2019-03-24T10:35:16.634Z,19712.00
2019-03-24T10:36:16.908Z,19648.00
2019-03-24T10:37:17.046Z,19648.00
2019-03-24T10:38:17.196Z,19840.00
2019-03-24T10:39:17.346Z,19936.00
2019-03-24T10:40:27.903Z,20032.00
2019-03-24T10:41:17.615Z,20160.00
2019-03-24T10:42:17.750Z,20032.00
2019-03-24T10:43:18.204Z,19776.00
2019-03-24T10:44:18.032Z,19584.00
2019-03-24T10:45:18.304Z,19456.00
2019-03-24T10:46:18.268Z,19648.00
2019-03-24T10:47:18.380Z,19680.00
2019-03-24T10:48:18.466Z,19648.00
2019-03-24T10:49:24.830Z,19520.00
2019-03-24T10:50:18.896Z,19648.00
2019-03-24T10:51:19.026Z,19552.00
2019-03-24T10:52:19.137Z,19040.00
2019-03-24T10:53:19.586Z,18272.00
2019-03-24T10:54:21.650Z,17568.00
2019-03-24T10:55:20.567Z,18496.00
2019-03-24T10:56:20.538Z,17984.00
2019-03-24T10:57:20.088Z,17024.00
2019-03-24T10:58:22.182Z,20096.00
2019-03-24T10:59:21.671Z,20480.00
2019-03-24T11:00:20.800Z,20480.00
2019-03-24T11:01:21.343Z,19296.00
2019-03-24T11:02:21.056Z,14536.00
2019-03-24T11:03:21.034Z,10964.00
2019-03-24T11:04:21.148Z,8780.00
2019-03-24T11:05:21.353Z,7116.00
2019-03-24T11:06:22.911Z,5984.00
2019-03-24T11:07:21.760Z,5124.00
2019-03-24T11:08:21.912Z,4640.00
2019-03-24T11:09:22.089Z,4316.00
2019-03-24T11:10:22.259Z,4184.00
2019-03-24T11:11:22.633Z,4400.00
2019-03-24T11:12:22.553Z,4856.00
2019-03-24T11:13:23.099Z,5372.00
2019-03-24T11:14:22.938Z,5620.00
2019-03-24T11:15:23.085Z,5620.00
2019-03-24T11:16:23.343Z,5468.00
2019-03-24T11:17:23.623Z,5072.00
2019-03-24T11:18:23.657Z,4564.00
2019-03-24T11:19:23.656Z,4260.00
2019-03-24T11:20:23.707Z,4080.00
2019-03-24T11:21:23.972Z,4036.00
2019-03-24T11:22:24.324Z,4280.00
2019-03-24T11:23:24.407Z,4676.00
2019-03-24T11:24:24.596Z,4832.00
2019-03-24T11:25:25.205Z,4752.00
2019-03-24T11:26:24.844Z,4584.00
2019-03-24T11:27:25.238Z,4500.00
2019-03-24T11:28:25.033Z,4312.00
2019-03-24T11:29:25.245Z,4168.00
2019-03-24T11:30:25.399Z,4020.00
2019-03-24T11:31:25.450Z,3856.00
2019-03-24T11:32:25.759Z,3824.00
2019-03-24T11:33:25.768Z,4060.00
2019-03-24T11:34:25.947Z,4464.00
2019-03-24T11:35:26.220Z,4744.00
2019-03-24T11:36:26.262Z,4888.00
2019-03-24T11:37:26.414Z,4812.00
2019-03-24T11:38:26.552Z,4492.00
2019-03-24T11:39:26.685Z,3980.00
2019-03-24T11:40:26.935Z,3604.00
2019-03-24T11:41:27.051Z,3444.00
2019-03-24T11:42:27.322Z,3480.00
2019-03-24T11:43:27.433Z,3372.00
2019-03-24T11:44:27.652Z,3060.00
2019-03-24T11:45:27.685Z,2716.00
2019-03-24T11:46:27.841Z,2416.00
2019-03-24T11:47:28.001Z,2248.00
2019-03-24T11:48:28.139Z,2188.00
2019-03-24T11:49:28.257Z,2088.00
2019-03-24T11:50:28.353Z,2040.00
2019-03-24T11:51:28.462Z,2004.00
2019-03-24T11:52:28.668Z,1952.00
2019-03-24T11:53:28.786Z,1960.00
2019-03-24T11:54:28.922Z,1908.00
2019-03-24T11:55:29.047Z,1836.00
2019-03-24T11:56:29.103Z,1880.00
2019-03-24T11:57:29.384Z,1976.00
2019-03-24T11:58:29.696Z,2096.00
2019-03-24T11:59:29.729Z,2148.00
2019-03-24T12:00:29.854Z,2008.00
2019-03-24T12:01:37.926Z,1856.00
2019-03-24T12:02:30.129Z,1812.00
2019-03-24T12:03:30.237Z,1772.00
2019-03-24T12:04:30.377Z,1820.00
2019-03-24T12:05:30.578Z,2012.00
2019-03-24T12:06:30.787Z,2236.00
2019-03-24T12:07:30.753Z,2368.00
2019-03-24T12:08:30.871Z,2388.00
2019-03-24T12:09:30.968Z,2256.00
2019-03-24T12:10:31.436Z,2084.00
2019-03-24T12:11:31.559Z,1976.00
2019-03-24T12:12:33.891Z,1876.00
2019-03-24T12:13:31.767Z,1828.00
2019-03-24T12:14:33.099Z,1832.00
2019-03-24T12:15:32.664Z,1888.00
2019-03-24T12:16:32.254Z,1968.00
2019-03-24T12:17:32.337Z,2012.00
2019-03-24T12:18:32.532Z,2004.00
2019-03-24T12:19:33.844Z,2020.00
2019-03-24T12:20:32.797Z,2160.00
2019-03-24T12:21:32.906Z,2336.00
2019-03-24T12:22:32.996Z,2364.00
2019-03-24T12:23:33.209Z,2200.00
2019-03-24T12:24:33.250Z,2084.00
2019-03-24T12:25:33.481Z,2260.00
2019-03-24T12:26:33.580Z,2468.00
2019-03-24T12:27:33.784Z,2412.00
2019-03-24T12:28:34.022Z,2180.00
2019-03-24T12:29:34.542Z,2032.00
2019-03-24T12:30:34.132Z,2072.00
2019-03-24T12:31:34.326Z,2172.00
2019-03-24T12:32:34.629Z,2252.00
2019-03-24T12:33:34.777Z,2292.00
2019-03-24T12:34:34.906Z,2268.00
2019-03-24T12:35:35.056Z,2284.00
2019-03-24T12:36:35.448Z,2544.00